sensor_id;sensor_type;location;lat;lon;timestamp;pressure;altitude;pressure_sealevel;temperature;humidity
46223;BME280;31943;51.410;7.564;2023-03-23T00:00:20;99182.81;;;12.49;64.39
46223;BME280;31943;51.410;7.564;2023-03-23T00:02:45;99171.56;;;12.43;64.85
46223;BME280;31943;51.410;7.564;2023-03-23T00:05:11;99171.56;;;12.42;64.90
46223;BME280;31943;51.410;7.564;2023-03-23T00:07:38;99169.81;;;12.42;65.11
46223;BME280;31943;51.410;7.564;2023-03-23T00:10:06;99170.78;;;12.37;65.27
46223;BME280;31943;51.410;7.564;2023-03-23T00:12:40;99170.81;;;12.35;65.39
46223;BME280;31943;51.410;7.564;2023-03-23T00:15:08;99158.59;;;12.36;65.61
46223;BME280;31943;51.410;7.564;2023-03-23T00:17:35;99165.50;;;12.40;65.68
46223;BME280;31943;51.410;7.564;2023-03-23T00:20:02;99155.94;;;12.37;65.95
46223;BME280;31943;51.410;7.564;2023-03-23T00:22:28;99154.19;;;12.38;66.31
46223;BME280;31943;51.410;7.564;2023-03-23T00:24:54;99150.69;;;12.39;66.25
46223;BME280;31943;51.410;7.564;2023-03-23T00:27:22;99146.34;;;12.38;66.13
46223;BME280;31943;51.410;7.564;2023-03-23T00:29:50;99136.69;;;12.43;66.16
46223;BME280;31943;51.410;7.564;2023-03-23T00:32:16;99141.94;;;12.41;66.03
46223;BME280;31943;51.410;7.564;2023-03-23T00:34:43;99140.19;;;12.40;66.37
46223;BME280;31943;51.410;7.564;2023-03-23T00:37:15;99135.84;;;12.41;66.30
46223;BME280;31943;51.410;7.564;2023-03-23T00:39:40;99138.47;;;12.39;66.05
46223;BME280;31943;51.410;7.564;2023-03-23T00:42:07;99129.81;;;12.36;66.36
46223;BME280;31943;51.410;7.564;2023-03-23T00:44:33;99142.88;;;12.37;66.30
46223;BME280;31943;51.410;7.564;2023-03-23T00:47:03;99142.00;;;12.37;66.40
46223;BME280;31943;51.410;7.564;2023-03-23T00:49:30;99130.69;;;12.35;66.34
46223;BME280;31943;51.410;7.564;2023-03-23T00:51:57;99126.34;;;12.35;66.31
46223;BME280;31943;51.410;7.564;2023-03-23T00:54:26;99121.97;;;12.36;66.43
46223;BME280;31943;51.410;7.564;2023-03-23T00:56:53;99123.72;;;12.35;66.55
46223;BME280;31943;51.410;7.564;2023-03-23T00:59:19;99123.72;;;12.34;66.57
46223;BME280;31943;51.410;7.564;2023-03-23T01:01:45;99124.59;;;12.34;66.32
46223;BME280;31943;51.410;7.564;2023-03-23T01:04:13;99132.44;;;12.34;66.50
46223;BME280;31943;51.410;7.564;2023-03-23T01:07:02;99132.38;;;12.39;66.20
46223;BME280;31943;51.410;7.564;2023-03-23T01:09:30;99124.56;;;12.37;65.97
46223;BME280;31943;51.410;7.564;2023-03-23T01:11:58;99119.34;;;12.36;66.32
46223;BME280;31943;51.410;7.564;2023-03-23T01:14:24;99124.59;;;12.34;65.84
46223;BME280;31943;51.410;7.564;2023-03-23T01:16:52;99114.09;;;12.37;65.95
46223;BME280;31943;51.410;7.564;2023-03-23T01:19:23;99116.59;;;12.43;65.51
46223;BME280;31943;51.410;7.564;2023-03-23T01:21:50;99111.41;;;12.42;65.53
46223;BME280;31943;51.410;7.564;2023-03-23T01:24:15;99109.69;;;12.39;65.29
46223;BME280;31943;51.410;7.564;2023-03-23T01:26:41;99105.34;;;12.38;65.37
46223;BME280;31943;51.410;7.564;2023-03-23T01:29:07;99113.19;;;12.38;65.47
46223;BME280;31943;51.410;7.564;2023-03-23T01:31:33;99120.16;;;12.41;65.37
46223;BME280;31943;51.410;7.564;2023-03-23T01:33:59;99126.25;;;12.41;65.30
46223;BME280;31943;51.410;7.564;2023-03-23T01:36:29;99125.41;;;12.39;65.69
46223;BME280;31943;51.410;7.564;2023-03-23T01:38:55;99126.31;;;12.37;65.55
46223;BME280;31943;51.410;7.564;2023-03-23T01:41:21;99124.59;;;12.34;65.65
46223;BME280;31943;51.410;7.564;2023-03-23T01:43:59;99118.53;;;12.32;65.94
46223;BME280;31943;51.410;7.564;2023-03-23T01:46:26;99115.91;;;12.32;66.30
46223;BME280;31943;51.410;7.564;2023-03-23T01:48:55;99124.66;;;12.31;66.20
46223;BME280;31943;51.410;7.564;2023-03-23T01:51:22;99127.28;;;12.31;66.62
46223;BME280;31943;51.410;7.564;2023-03-23T01:53:55;99117.69;;;12.30;67.14
46223;BME280;31943;51.410;7.564;2023-03-23T01:56:24;99115.97;;;12.29;67.17
46223;BME280;31943;51.410;7.564;2023-03-23T01:58:55;99122.06;;;12.28;67.34
46223;BME280;31943;51.410;7.564;2023-03-23T02:01:21;99120.38;;;12.25;67.58
46223;BME280;31943;51.410;7.564;2023-03-23T02:03:48;99112.44;;;12.30;67.76
46223;BME280;31943;51.410;7.564;2023-03-23T02:06:15;99113.31;;;12.31;68.11
46223;BME280;31943;51.410;7.564;2023-03-23T02:08:43;99115.06;;;12.29;67.97
46223;BME280;31943;51.410;7.564;2023-03-23T02:11:15;99116.84;;;12.28;68.33
46223;BME280;31943;51.410;7.564;2023-03-23T02:13:41;99117.78;;;12.24;68.36
46223;BME280;31943;51.410;7.564;2023-03-23T02:16:13;99117.75;;;12.27;68.06
46223;BME280;31943;51.410;7.564;2023-03-23T02:18:53;99108.25;;;12.20;68.59
46223;BME280;31943;51.410;7.564;2023-03-23T02:24:52;99112.72;;;12.12;69.09
46223;BME280;31943;51.410;7.564;2023-03-23T02:27:40;99090.97;;;12.10;69.28
46223;BME280;31943;51.410;7.564;2023-03-23T02:30:21;99098.75;;;12.13;68.79
46223;BME280;31943;51.410;7.564;2023-03-23T02:35:56;99089.22;;;12.10;68.94
46223;BME280;31943;51.410;7.564;2023-03-23T02:38:31;99084.00;;;12.10;69.22
46223;BME280;31943;51.410;7.564;2023-03-23T02:40:59;99083.25;;;12.00;69.84
46223;BME280;31943;51.410;7.564;2023-03-23T02:43:30;99061.53;;;11.95;69.91
46223;BME280;31943;51.410;7.564;2023-03-23T02:45:57;99061.63;;;11.89;69.82
46223;BME280;31943;51.410;7.564;2023-03-23T02:48:28;99048.66;;;11.80;70.54
46223;BME280;31943;51.410;7.564;2023-03-23T02:50:55;99053.81;;;11.84;70.74
46223;BME280;31943;51.410;7.564;2023-03-23T02:53:27;99034.72;;;11.79;70.93
46223;BME280;31943;51.410;7.564;2023-03-23T02:55:56;99019.88;;;11.81;70.74
46223;BME280;31943;51.410;7.564;2023-03-23T02:58:23;99023.44;;;11.77;70.85
46223;BME280;31943;51.410;7.564;2023-03-23T03:00:49;99025.28;;;11.71;70.93
46223;BME280;31943;51.410;7.564;2023-03-23T03:03:17;99019.97;;;11.75;70.73
46223;BME280;31943;51.410;7.564;2023-03-23T03:05:56;99016.53;;;11.73;71.30
46223;BME280;31943;51.410;7.564;2023-03-23T03:08:33;99015.66;;;11.74;70.89
46223;BME280;31943;51.410;7.564;2023-03-23T03:11:07;99007.72;;;11.79;70.70
46223;BME280;31943;51.410;7.564;2023-03-23T03:13:42;99010.41;;;11.74;71.16
46223;BME280;31943;51.410;7.564;2023-03-23T03:16:24;99006.88;;;11.78;70.89
46223;BME280;31943;51.410;7.564;2023-03-23T03:18:57;99000.81;;;11.76;70.92
46223;BME280;31943;51.410;7.564;2023-03-23T03:21:30;99001.66;;;11.77;70.65
46223;BME280;31943;51.410;7.564;2023-03-23T03:23:59;99002.63;;;11.71;70.51
46223;BME280;31943;51.410;7.564;2023-03-23T03:26:29;99004.31;;;11.74;70.61
46223;BME280;31943;51.410;7.564;2023-03-23T03:29:01;99008.72;;;11.70;70.81
46223;BME280;31943;51.410;7.564;2023-03-23T03:31:30;99010.47;;;11.70;70.63
46223;BME280;31943;51.410;7.564;2023-03-23T03:33:58;99004.38;;;11.69;70.66
46223;BME280;31943;51.410;7.564;2023-03-23T03:36:28;99013.06;;;11.71;70.43
46223;BME280;31943;51.410;7.564;2023-03-23T03:38:55;99007.84;;;11.71;70.40
46223;BME280;31943;51.410;7.564;2023-03-23T03:41:23;99006.91;;;11.74;70.09
46223;BME280;31943;51.410;7.564;2023-03-23T03:43:49;98998.22;;;11.75;70.36
46223;BME280;31943;51.410;7.564;2023-03-23T03:46:15;99002.50;;;11.80;69.98
46223;BME280;31943;51.410;7.564;2023-03-23T03:48:40;99012.16;;;11.74;70.11
46223;BME280;31943;51.410;7.564;2023-03-23T03:51:06;99008.75;;;11.68;70.28
46223;BME280;31943;51.410;7.564;2023-03-23T03:53:35;99015.69;;;11.70;70.02
46223;BME280;31943;51.410;7.564;2023-03-23T03:56:01;99020.88;;;11.74;69.69
46223;BME280;31943;51.410;7.564;2023-03-23T03:58:27;99021.75;;;11.72;69.67
46223;BME280;31943;51.410;7.564;2023-03-23T04:00:53;99029.59;;;11.72;69.52
46223;BME280;31943;51.410;7.564;2023-03-23T04:03:19;99026.09;;;11.74;69.37
46223;BME280;31943;51.410;7.564;2023-03-23T04:05:47;99033.06;;;11.74;69.23
46223;BME280;31943;51.410;7.564;2023-03-23T04:08:13;99026.94;;;11.76;69.13
46223;BME280;31943;51.410;7.564;2023-03-23T04:10:40;99030.41;;;11.78;69.37
46223;BME280;31943;51.410;7.564;2023-03-23T04:13:06;99032.09;;;11.79;69.29
46223;BME280;31943;51.410;7.564;2023-03-23T04:15:33;99034.69;;;11.82;68.77
46223;BME280;31943;51.410;7.564;2023-03-23T04:17:59;99026.91;;;11.78;68.87
46223;BME280;31943;51.410;7.564;2023-03-23T04:20:24;99022.50;;;11.80;68.56
46223;BME280;31943;51.410;7.564;2023-03-23T04:22:52;99023.34;;;11.83;68.65
46223;BME280;31943;51.410;7.564;2023-03-23T04:25:19;99028.53;;;11.85;68.53
46223;BME280;31943;51.410;7.564;2023-03-23T04:27:48;99025.94;;;11.83;68.52
46223;BME280;31943;51.410;7.564;2023-03-23T04:30:14;99038.97;;;11.86;68.34
46223;BME280;31943;51.410;7.564;2023-03-23T04:32:41;99019.88;;;11.81;68.84
46223;BME280;31943;51.410;7.564;2023-03-23T04:35:09;99028.63;;;11.79;68.63
46223;BME280;31943;51.410;7.564;2023-03-23T04:37:35;99027.78;;;11.78;68.36
46223;BME280;31943;51.410;7.564;2023-03-23T04:40:02;99026.03;;;11.77;68.30
46223;BME280;31943;51.410;7.564;2023-03-23T04:42:29;99019.06;;;11.78;68.46
46223;BME280;31943;51.410;7.564;2023-03-23T04:44:58;99018.19;;;11.79;68.30
46223;BME280;31943;51.410;7.564;2023-03-23T04:47:25;99010.34;;;11.77;68.46
46223;BME280;31943;51.410;7.564;2023-03-23T04:49:52;99014.75;;;11.74;68.65
46223;BME280;31943;51.410;7.564;2023-03-23T04:52:18;99018.19;;;11.77;68.62
46223;BME280;31943;51.410;7.564;2023-03-23T04:54:44;99024.22;;;11.82;68.50
46223;BME280;31943;51.410;7.564;2023-03-23T04:57:09;99026.88;;;11.81;68.14
46223;BME280;31943;51.410;7.564;2023-03-23T04:59:36;99020.81;;;11.76;68.52
46223;BME280;31943;51.410;7.564;2023-03-23T05:02:06;99029.56;;;11.75;68.57
46223;BME280;31943;51.410;7.564;2023-03-23T05:04:31;99023.44;;;11.76;68.09
46223;BME280;31943;51.410;7.564;2023-03-23T05:06:57;99044.34;;;11.77;68.55
46223;BME280;31943;51.410;7.564;2023-03-23T05:09:23;99035.63;;;11.78;68.15
46223;BME280;31943;51.410;7.564;2023-03-23T05:12:12;99037.31;;;11.82;68.34
46223;BME280;31943;51.410;7.564;2023-03-23T05:14:40;99031.25;;;11.79;68.20
46223;BME280;31943;51.410;7.564;2023-03-23T05:17:08;99028.66;;;11.76;68.33
46223;BME280;31943;51.410;7.564;2023-03-23T05:19:37;99026.97;;;11.75;68.18
46223;BME280;31943;51.410;7.564;2023-03-23T05:22:05;99026.06;;;11.76;68.09
46223;BME280;31943;51.410;7.564;2023-03-23T05:24:31;99030.44;;;11.75;68.03
46223;BME280;31943;51.410;7.564;2023-03-23T05:26:59;99038.28;;;11.74;68.06
46223;BME280;31943;51.410;7.564;2023-03-23T05:29:25;99036.50;;;11.76;68.49
46223;BME280;31943;51.410;7.564;2023-03-23T05:31:51;99046.06;;;11.78;68.50
46223;BME280;31943;51.410;7.564;2023-03-23T05:34:23;99044.34;;;11.77;68.52
46223;BME280;31943;51.410;7.564;2023-03-23T05:36:50;99045.19;;;11.78;68.06
46223;BME280;31943;51.410;7.564;2023-03-23T05:39:15;99043.47;;;11.78;68.09
46223;BME280;31943;51.410;7.564;2023-03-23T05:41:44;99053.91;;;11.78;68.01
46223;BME280;31943;51.410;7.564;2023-03-23T05:44:11;99046.94;;;11.79;68.12
46223;BME280;31943;51.410;7.564;2023-03-23T05:46:40;99065.22;;;11.80;67.75
46223;BME280;31943;51.410;7.564;2023-03-23T05:49:07;99053.00;;;11.82;67.68
46223;BME280;31943;51.410;7.564;2023-03-23T05:51:36;99058.22;;;11.81;67.98
46223;BME280;31943;51.410;7.564;2023-03-23T05:54:02;99064.28;;;11.83;67.98
46223;BME280;31943;51.410;7.564;2023-03-23T05:56:28;99060.75;;;11.85;67.63
46223;BME280;31943;51.410;7.564;2023-03-23T05:58:54;99066.88;;;11.86;67.64
46223;BME280;31943;51.410;7.564;2023-03-23T06:01:21;99066.91;;;11.84;67.94
46223;BME280;31943;51.410;7.564;2023-03-23T06:03:48;99066.91;;;11.84;67.64
46223;BME280;31943;51.410;7.564;2023-03-23T06:06:14;99061.63;;;11.89;67.63
46223;BME280;31943;51.410;7.564;2023-03-23T06:08:41;99057.22;;;11.94;67.47
46223;BME280;31943;51.410;7.564;2023-03-23T06:11:07;99069.38;;;11.95;67.64
46223;BME280;31943;51.410;7.564;2023-03-23T06:13:32;99067.59;;;11.97;67.51
46223;BME280;31943;51.410;7.564;2023-03-23T06:15:59;99067.59;;;11.97;67.55
46223;BME280;31943;51.410;7.564;2023-03-23T06:18:26;99072.81;;;11.97;67.54
46223;BME280;31943;51.410;7.564;2023-03-23T06:20:53;99075.41;;;12.00;67.49
46223;BME280;31943;51.410;7.564;2023-03-23T06:23:19;99071.03;;;12.02;67.31
46223;BME280;31943;51.410;7.564;2023-03-23T06:25:46;99077.97;;;12.03;67.47
46223;BME280;31943;51.410;7.564;2023-03-23T06:28:12;99079.72;;;12.04;67.32
46223;BME280;31943;51.410;7.564;2023-03-23T06:30:39;99084.94;;;12.04;67.13
46223;BME280;31943;51.410;7.564;2023-03-23T06:33:06;99084.91;;;12.06;67.24
46223;BME280;31943;51.410;7.564;2023-03-23T06:35:32;99094.53;;;12.04;67.24
46223;BME280;31943;51.410;7.564;2023-03-23T06:37:58;99090.13;;;12.07;66.92
46223;BME280;31943;51.410;7.564;2023-03-23T06:40:24;99095.31;;;12.11;67.08
46223;BME280;31943;51.410;7.564;2023-03-23T06:42:51;99100.50;;;12.14;66.98
46223;BME280;31943;51.410;7.564;2023-03-23T06:45:17;99101.34;;;12.16;66.89
46223;BME280;31943;51.410;7.564;2023-03-23T06:47:42;99100.41;;;12.18;66.95
46223;BME280;31943;51.410;7.564;2023-03-23T06:50:08;99090.81;;;12.20;66.81
46223;BME280;31943;51.410;7.564;2023-03-23T06:52:34;99096.88;;;12.21;66.58
46223;BME280;31943;51.410;7.564;2023-03-23T06:55:00;99100.28;;;12.27;66.42
46223;BME280;31943;51.410;7.564;2023-03-23T06:57:25;99105.41;;;12.34;66.52
46223;BME280;31943;51.410;7.564;2023-03-23T06:59:53;99103.66;;;12.36;66.32
46223;BME280;31943;51.410;7.564;2023-03-23T07:02:19;99101.91;;;12.35;66.07
46223;BME280;31943;51.410;7.564;2023-03-23T07:04:44;99105.41;;;12.35;66.38
46223;BME280;31943;51.410;7.564;2023-03-23T07:07:20;99108.88;;;12.36;65.94
46223;BME280;31943;51.410;7.564;2023-03-23T07:09:46;99107.09;;;12.38;65.96
46223;BME280;31943;51.410;7.564;2023-03-23T07:12:12;99104.47;;;12.39;65.58
46223;BME280;31943;51.410;7.564;2023-03-23T07:14:38;99107.06;;;12.41;65.43
46223;BME280;31943;51.410;7.564;2023-03-23T07:17:06;99110.53;;;12.41;65.65
46223;BME280;31943;51.410;7.564;2023-03-23T07:19:33;99106.13;;;12.45;65.53
46223;BME280;31943;51.410;7.564;2023-03-23T07:21:59;99110.41;;;12.51;65.29
46223;BME280;31943;51.410;7.564;2023-03-23T07:24:26;99112.94;;;12.55;65.13
46223;BME280;31943;51.410;7.564;2023-03-23T07:26:52;99105.91;;;12.57;64.73
46223;BME280;31943;51.410;7.564;2023-03-23T07:29:17;99115.44;;;12.61;64.53
46223;BME280;31943;51.410;7.564;2023-03-23T07:31:44;99102.38;;;12.60;64.63
46223;BME280;31943;51.410;7.564;2023-03-23T07:34:11;99106.66;;;12.64;64.37
46223;BME280;31943;51.410;7.564;2023-03-23T07:36:38;99111.06;;;12.62;64.17
46223;BME280;31943;51.410;7.564;2023-03-23T07:39:04;99115.44;;;12.63;64.16
46223;BME280;31943;51.410;7.564;2023-03-23T07:41:30;99116.25;;;12.66;64.14
46223;BME280;31943;51.410;7.564;2023-03-23T07:43:56;99110.03;;;12.72;63.64
46223;BME280;31943;51.410;7.564;2023-03-23T07:46:21;99116.06;;;12.76;63.61
46223;BME280;31943;51.410;7.564;2023-03-23T07:48:48;99123.84;;;12.82;63.24
46223;BME280;31943;51.410;7.564;2023-03-23T07:51:15;99109.81;;;12.84;62.99
46223;BME280;31943;51.410;7.564;2023-03-23T07:53:41;99108.13;;;12.82;62.65
46223;BME280;31943;51.410;7.564;2023-03-23T07:56:08;99101.84;;;12.92;62.53
46223;BME280;31943;51.410;7.564;2023-03-23T07:58:35;99109.69;;;12.92;62.47
46223;BME280;31943;51.410;7.564;2023-03-23T08:01:02;99113.16;;;12.94;62.39
46223;BME280;31943;51.410;7.564;2023-03-23T08:03:28;99114.00;;;12.95;62.49
46223;BME280;31943;51.410;7.564;2023-03-23T08:05:57;99113.88;;;13.02;61.92
46223;BME280;31943;51.410;7.564;2023-03-23T08:08:28;99113.03;;;13.00;61.77
46223;BME280;31943;51.410;7.564;2023-03-23T08:10:54;99107.78;;;13.02;61.80
46223;BME280;31943;51.410;7.564;2023-03-23T08:13:21;99114.72;;;13.03;62.14
46223;BME280;31943;51.410;7.564;2023-03-23T08:15:47;99119.91;;;13.06;61.99
46223;BME280;31943;51.410;7.564;2023-03-23T08:18:13;99118.13;;;13.08;61.85
46223;BME280;31943;51.410;7.564;2023-03-23T08:20:39;99125.09;;;13.09;61.64
46223;BME280;31943;51.410;7.564;2023-03-23T08:23:05;99131.13;;;13.14;61.77
46223;BME280;31943;51.410;7.564;2023-03-23T08:25:33;99131.09;;;13.16;61.99
46223;BME280;31943;51.410;7.564;2023-03-23T08:28:00;99133.72;;;13.16;61.49
46223;BME280;31943;51.410;7.564;2023-03-23T08:30:26;99134.44;;;13.24;61.55
46223;BME280;31943;51.410;7.564;2023-03-23T08:32:53;99131.72;;;13.29;61.22
46223;BME280;31943;51.410;7.564;2023-03-23T08:35:19;99135.19;;;13.31;61.15
46223;BME280;31943;51.410;7.564;2023-03-23T08:37:46;99136.91;;;13.33;61.18
46223;BME280;31943;51.410;7.564;2023-03-23T08:40:13;99136.84;;;13.35;60.90
46223;BME280;31943;51.410;7.564;2023-03-23T08:42:42;99134.06;;;13.44;60.65
46223;BME280;31943;51.410;7.564;2023-03-23T08:45:10;99125.34;;;13.45;60.39
46223;BME280;31943;51.410;7.564;2023-03-23T08:47:36;99133.13;;;13.48;60.20
46223;BME280;31943;51.410;7.564;2023-03-23T08:50:02;99127.81;;;13.51;60.07
46223;BME280;31943;51.410;7.564;2023-03-23T08:52:29;99125.13;;;13.54;59.88
46223;BME280;31943;51.410;7.564;2023-03-23T08:54:55;99127.66;;;13.60;59.63
46223;BME280;31943;51.410;7.564;2023-03-23T08:57:20;99131.09;;;13.62;59.58
46223;BME280;31943;51.410;7.564;2023-03-23T08:59:48;99138.09;;;13.62;59.54
46223;BME280;31943;51.410;7.564;2023-03-23T09:02:13;99137.09;;;13.68;59.21
46223;BME280;31943;51.410;7.564;2023-03-23T09:04:39;99140.47;;;13.74;58.90
46223;BME280;31943;51.410;7.564;2023-03-23T09:07:05;99152.53;;;13.81;59.04
46223;BME280;31943;51.410;7.564;2023-03-23T09:09:31;99165.56;;;13.86;58.37
46223;BME280;31943;51.410;7.564;2023-03-23T09:11:58;99155.78;;;13.94;58.29
46223;BME280;31943;51.410;7.564;2023-03-23T09:14:23;99153.81;;;14.06;57.95
46223;BME280;31943;51.410;7.564;2023-03-23T09:16:51;99159.97;;;14.03;57.66
46223;BME280;31943;51.410;7.564;2023-03-23T09:19:16;99157.44;;;13.98;57.58
46223;BME280;31943;51.410;7.564;2023-03-23T09:21:42;99154.81;;;13.98;57.93
46223;BME280;31943;51.410;7.564;2023-03-23T09:24:08;99159.81;;;14.09;58.03
46223;BME280;31943;51.410;7.564;2023-03-23T09:26:34;99168.53;;;14.11;57.92
46223;BME280;31943;51.410;7.564;2023-03-23T09:29:00;99176.66;;;13.99;58.26
46223;BME280;31943;51.410;7.564;2023-03-23T09:31:26;99181.16;;;13.94;58.94
46223;BME280;31943;51.410;7.564;2023-03-23T09:33:53;99187.53;;;13.80;59.02
46223;BME280;31943;51.410;7.564;2023-03-23T09:36:19;99180.53;;;13.81;59.57
46223;BME280;31943;51.410;7.564;2023-03-23T09:38:45;99180.69;;;13.73;59.22
46223;BME280;31943;51.410;7.564;2023-03-23T09:41:16;99180.78;;;13.69;59.62
46223;BME280;31943;51.410;7.564;2023-03-23T09:44:01;99175.41;;;13.75;59.95
46223;BME280;31943;51.410;7.564;2023-03-23T09:46:46;99171.06;;;13.74;59.63
46223;BME280;31943;51.410;7.564;2023-03-23T09:49:19;99171.94;;;13.74;58.81
46223;BME280;31943;51.410;7.564;2023-03-23T09:51:50;99179.75;;;13.76;58.80
46223;BME280;31943;51.410;7.564;2023-03-23T09:54:20;99180.44;;;13.85;58.66
46223;BME280;31943;51.410;7.564;2023-03-23T09:56:47;99186.47;;;13.89;58.68
46223;BME280;31943;51.410;7.564;2023-03-23T09:59:19;99189.88;;;13.94;58.67
46223;BME280;31943;51.410;7.564;2023-03-23T10:01:47;99195.13;;;13.94;58.78
46223;BME280;31943;51.410;7.564;2023-03-23T10:04:24;99181.19;;;13.92;58.19
46223;BME280;31943;51.410;7.564;2023-03-23T10:06:53;99186.34;;;13.95;58.06
46223;BME280;31943;51.410;7.564;2023-03-23T10:09:23;99186.28;;;13.98;57.80
46223;BME280;31943;51.410;7.564;2023-03-23T10:11:56;99182.72;;;14.02;57.56
46223;BME280;31943;51.410;7.564;2023-03-23T10:14:37;99179.09;;;14.08;57.50
46223;BME280;31943;51.410;7.564;2023-03-23T10:17:13;99170.25;;;14.12;57.45
46223;BME280;31943;51.410;7.564;2023-03-23T10:19:46;99171.88;;;14.18;57.21
46223;BME280;31943;51.410;7.564;2023-03-23T10:22:15;99161.19;;;14.27;57.05
46223;BME280;31943;51.410;7.564;2023-03-23T10:24:46;99169.66;;;14.38;56.72
46223;BME280;31943;51.410;7.564;2023-03-23T10:27:19;99167.03;;;14.38;56.14
46223;BME280;31943;51.410;7.564;2023-03-23T10:29:53;99170.47;;;14.42;55.70
46223;BME280;31943;51.410;7.564;2023-03-23T10:32:39;99182.28;;;14.63;55.42
46223;BME280;31943;51.410;7.564;2023-03-23T10:35:12;99179.53;;;14.68;55.02
46223;BME280;31943;51.410;7.564;2023-03-23T10:37:44;99177.06;;;14.61;54.42
46223;BME280;31943;51.410;7.564;2023-03-23T10:40:15;99179.78;;;14.55;53.36
46223;BME280;31943;51.410;7.564;2023-03-23T10:42:42;99188.78;;;14.45;53.77
46223;BME280;31943;51.410;7.564;2023-03-23T10:45:16;99180.97;;;14.42;53.29
46223;BME280;31943;51.410;7.564;2023-03-23T10:47:46;99206.47;;;14.37;53.63
46223;BME280;31943;51.410;7.564;2023-03-23T10:50:18;99187.75;;;14.13;53.87
46223;BME280;31943;51.410;7.564;2023-03-23T10:52:49;99219.56;;;13.96;54.79
46223;BME280;31943;51.410;7.564;2023-03-23T10:55:17;99210.09;;;13.88;55.58
46223;BME280;31943;51.410;7.564;2023-03-23T10:57:45;99220.81;;;13.77;56.42
46223;BME280;31943;51.410;7.564;2023-03-23T11:00:18;99250.59;;;13.74;56.52
46223;BME280;31943;51.410;7.564;2023-03-23T11:02:46;99252.97;;;13.38;60.71
46223;BME280;31943;51.410;7.564;2023-03-23T11:05:18;99268.13;;;13.18;62.31
46223;BME280;31943;51.410;7.564;2023-03-23T11:07:50;99260.50;;;13.04;63.35
46223;BME280;31943;51.410;7.564;2023-03-23T11:10:22;99266.81;;;12.92;63.54
46223;BME280;31943;51.410;7.564;2023-03-23T11:12:48;99268.66;;;12.84;63.55
46223;BME280;31943;51.410;7.564;2023-03-23T11:15:22;99275.59;;;12.86;63.82
46223;BME280;31943;51.410;7.564;2023-03-23T11:17:55;99275.63;;;12.83;63.90
46223;BME280;31943;51.410;7.564;2023-03-23T11:20:22;99276.66;;;12.73;64.29
46223;BME280;31943;51.410;7.564;2023-03-23T11:22:48;99283.91;;;12.54;64.79
46223;BME280;31943;51.410;7.564;2023-03-23T11:25:14;99293.59;;;12.48;65.07
46223;BME280;31943;51.410;7.564;2023-03-23T11:27:40;99306.06;;;12.27;65.72
46223;BME280;31943;51.410;7.564;2023-03-23T11:30:09;99301.88;;;12.14;66.73
46223;BME280;31943;51.410;7.564;2023-03-23T11:32:36;99281.78;;;12.16;67.36
46223;BME280;31943;51.410;7.564;2023-03-23T11:35:04;99269.31;;;12.36;67.20
46223;BME280;31943;51.410;7.564;2023-03-23T11:37:39;99283.22;;;12.41;67.19
46223;BME280;31943;51.410;7.564;2023-03-23T11:40:15;99271.03;;;12.39;67.80
46223;BME280;31943;51.410;7.564;2023-03-23T11:42:44;99271.91;;;12.38;67.96
46223;BME280;31943;51.410;7.564;2023-03-23T11:45:19;99271.94;;;12.36;68.18
46223;BME280;31943;51.410;7.564;2023-03-23T11:47:53;99278.00;;;12.40;68.01
46223;BME280;31943;51.410;7.564;2023-03-23T11:50:23;99270.28;;;12.29;68.07
46223;BME280;31943;51.410;7.564;2023-03-23T11:53:01;99274.69;;;12.27;68.70
46223;BME280;31943;51.410;7.564;2023-03-23T11:58:13;99277.31;;;12.24;69.10
46223;BME280;31943;51.410;7.564;2023-03-23T12:00:45;99285.19;;;12.22;68.97
46223;BME280;31943;51.410;7.564;2023-03-23T12:03:14;99285.28;;;12.15;69.53
46223;BME280;31943;51.410;7.564;2023-03-23T12:05:45;99265.09;;;12.24;69.28
46223;BME280;31943;51.410;7.564;2023-03-23T12:08:26;99258.88;;;12.35;69.43
46223;BME280;31943;51.410;7.564;2023-03-23T12:11:01;99271.91;;;12.38;69.63
46223;BME280;31943;51.410;7.564;2023-03-23T12:13:48;99267.63;;;12.34;69.62
46223;BME280;31943;51.410;7.564;2023-03-23T12:16:22;99279.09;;;12.20;69.62
46223;BME280;31943;51.410;7.564;2023-03-23T12:18:55;99272.19;;;12.16;70.04
46223;BME280;31943;51.410;7.564;2023-03-23T12:21:31;99272.94;;;12.26;69.96
46223;BME280;31943;51.410;7.564;2023-03-23T12:24:11;99261.44;;;12.41;70.00
46223;BME280;31943;51.410;7.564;2023-03-23T12:26:46;99269.97;;;12.52;69.72
46223;BME280;31943;51.410;7.564;2023-03-23T12:29:30;99264.75;;;12.52;69.68
46223;BME280;31943;51.410;7.564;2023-03-23T12:32:18;99269.09;;;12.53;69.67
46223;BME280;31943;51.410;7.564;2023-03-23T12:34:52;99283.03;;;12.54;69.85
46223;BME280;31943;51.410;7.564;2023-03-23T12:37:32;99275.94;;;12.63;69.99
46223;BME280;31943;51.410;7.564;2023-03-23T12:40:19;99252.25;;;12.74;69.39
46223;BME280;31943;51.410;7.564;2023-03-23T12:42:52;99257.25;;;12.88;69.38
46223;BME280;31943;51.410;7.564;2023-03-23T12:45:24;99267.56;;;12.97;69.00
46223;BME280;31943;51.410;7.564;2023-03-23T12:47:55;99253.59;;;12.98;69.25
46223;BME280;31943;51.410;7.564;2023-03-23T12:50:27;99270.16;;;13.00;69.26
46223;BME280;31943;51.410;7.564;2023-03-23T12:53:00;99258.09;;;12.92;69.11
46223;BME280;31943;51.410;7.564;2023-03-23T12:55:35;99266.72;;;12.97;68.92
46223;BME280;31943;51.410;7.564;2023-03-23T12:58:05;99264.06;;;13.00;69.04
46223;BME280;31943;51.410;7.564;2023-03-23T13:00:48;99275.31;;;13.05;69.09
46223;BME280;31943;51.410;7.564;2023-03-23T13:03:17;99277.97;;;13.03;68.78
46223;BME280;31943;51.410;7.564;2023-03-23T13:05:49;99271.81;;;13.08;69.12
46223;BME280;31943;51.410;7.564;2023-03-23T13:08:18;99271.88;;;13.01;69.37
46223;BME280;31943;51.410;7.564;2023-03-23T13:10:47;99262.44;;;12.91;69.20
46223;BME280;31943;51.410;7.564;2023-03-23T13:13:17;99261.47;;;12.98;69.38
46223;BME280;31943;51.410;7.564;2023-03-23T13:15:51;99272.88;;;12.94;69.62
46223;BME280;31943;51.410;7.564;2023-03-23T13:18:27;99276.34;;;12.96;69.58